Time;durP1;ratioP1;P1;durP2;ratioP2;P2;SDS_P1;SDS_P2;PMS_P1;PMS_P2;Temp;Humidity;BMP_temperature;BMP_pressure;BME280_temperature;BME280_humidity;BME280_pressure;Samples;Min_cycle;Max_cycle;Signal;HPM_P1;HPM_P2
2021/12/19 00:00:29;;;;;;;;;;;;;;;1.43;59.41;97107.69;5012237;28;20029;-59
2021/12/19 00:08:34;;;;;;;;;;;;;;;0.00;62.45;97100.09;4988665;28;20016;-59
2021/12/19 00:10:59;;;;;;;;;;;;;;;0.20;64.09;97101.75;5007241;28;20389;-59
2021/12/19 00:13:25;;;;;;;;;;;;;;;0.31;62.48;97097.75;4990658;28;20224;-60
2021/12/19 00:15:51;;;;;;;;;;;;;;;0.30;62.94;97094.28;5004115;28;19997;-59
2021/12/19 00:18:16;;;;;;;;;;;;;;;0.38;62.28;97090.44;4990142;28;20730;-59
2021/12/19 00:20:42;;;;;;;;;;;;;;;0.37;62.64;97091.38;5003952;28;19993;-60
2021/12/19 00:23:07;;;;;;;;;;;;;;;0.76;63.45;97087.63;4990333;28;19975;-59
2021/12/19 00:25:32;;;;;;;;;;;;;;;0.63;62.94;97083.91;5004110;28;19970;-59
2021/12/19 00:27:57;;;;;;;;;;;;;;;0.50;61.82;97083.69;4996715;28;20097;-58
2021/12/19 00:30:23;;;;;;;;;;;;;;;0.54;62.04;97070.38;5008369;28;20011;-59
2021/12/19 00:32:48;;;;;;;;;;;;;;;0.42;62.67;97074.47;5011577;28;20055;-58
2021/12/19 00:35:13;;;;;;;;;;;;;;;0.05;63.32;97079.78;5021038;28;19994;-59
2021/12/19 00:37:38;;;;;;;;;;;;;;;-0.45;65.35;97073.44;5013819;28;19970;-59
2021/12/19 00:40:04;;;;;;;;;;;;;;;-0.57;65.90;97078.34;5020834;28;20389;-59
2021/12/19 00:42:30;;;;;;;;;;;;;;;-0.89;68.26;97082.44;5015183;28;20066;-59
2021/12/19 00:44:57;;;;;;;;;;;;;;;-1.55;70.20;97087.88;5013144;28;19998;-58
2021/12/19 00:47:23;;;;;;;;;;;;;;;-1.47;70.39;97088.41;5006047;28;20036;-59
2021/12/19 00:49:48;;;;;;;;;;;;;;;-1.23;69.41;97083.00;5009796;28;20031;-59
2021/12/19 00:52:13;;;;;;;;;;;;;;;-0.93;69.06;97078.25;5020644;28;20000;-59
2021/12/19 00:54:38;;;;;;;;;;;;;;;-1.39;69.14;97077.59;5009993;28;20074;-59
2021/12/19 00:57:04;;;;;;;;;;;;;;;-1.26;68.87;97085.75;5018508;28;19998;-58
2021/12/19 00:59:29;;;;;;;;;;;;;;;-1.33;69.48;97076.47;5019637;28;19992;-58
2021/12/19 01:01:54;;;;;;;;;;;;;;;-1.39;70.23;97079.38;5014977;28;20389;-59
2021/12/19 01:04:20;;;;;;;;;;;;;;;-1.72;71.29;97067.69;5017913;28;20437;-58
2021/12/19 01:06:45;;;;;;;;;;;;;;;-1.52;70.99;97060.78;5010741;28;19973;-58
2021/12/19 01:09:10;;;;;;;;;;;;;;;-1.76;72.36;97060.91;5013867;28;19990;-59
2021/12/19 01:11:35;;;;;;;;;;;;;;;-1.31;70.52;97047.69;5007687;28;19998;-58
2021/12/19 01:14:01;;;;;;;;;;;;;;;-1.17;71.03;97053.16;5024185;28;20615;-58
2021/12/19 01:16:26;;;;;;;;;;;;;;;-0.76;69.01;97046.09;5017522;28;20036;-59
2021/12/19 01:18:51;;;;;;;;;;;;;;;-0.68;67.98;97041.38;5022275;28;20476;-60
2021/12/19 01:21:17;;;;;;;;;;;;;;;-1.01;69.15;97042.84;5018968;28;20084;-58
2021/12/19 01:23:42;;;;;;;;;;;;;;;-1.39;71.06;97034.97;5019183;28;20171;-59
2021/12/19 01:26:07;;;;;;;;;;;;;;;-1.37;71.27;97044.44;5013604;28;20453;-59
2021/12/19 01:28:32;;;;;;;;;;;;;;;-1.34;71.61;97035.59;5026218;28;20000;-58
2021/12/19 01:30:58;;;;;;;;;;;;;;;-1.51;72.03;97045.03;5008119;28;20115;-58
2021/12/19 01:33:23;;;;;;;;;;;;;;;-1.79;72.61;97034.94;5020426;28;20493;-59
2021/12/19 01:35:48;;;;;;;;;;;;;;;-1.76;73.57;97032.19;5018091;28;20401;-56
2021/12/19 01:38:13;;;;;;;;;;;;;;;-1.68;73.16;97024.00;5019703;28;19966;-59
2021/12/19 01:40:38;;;;;;;;;;;;;;;-1.85;73.96;97039.50;5018227;28;20128;-58
2021/12/19 01:43:04;;;;;;;;;;;;;;;-1.63;73.40;97032.50;5021609;28;19962;-58
2021/12/19 01:45:30;;;;;;;;;;;;;;;-1.47;72.65;97025.69;5009083;28;20481;-58
2021/12/19 01:47:55;;;;;;;;;;;;;;;-1.59;73.23;97039.31;5011139;28;19989;-58
2021/12/19 01:50:21;;;;;;;;;;;;;;;-1.56;73.38;97033.91;5015609;28;19985;-58
2021/12/19 01:52:46;;;;;;;;;;;;;;;-1.70;73.55;97033.69;5013915;28;20003;-58
2021/12/19 01:55:11;;;;;;;;;;;;;;;-1.48;72.25;97026.63;5025496;28;19993;-58
2021/12/19 01:57:37;;;;;;;;;;;;;;;-1.51;72.92;97044.19;5012383;28;19992;-58
2021/12/19 02:00:04;;;;;;;;;;;;;;;-1.36;71.72;97026.97;5011909;28;20444;-58
2021/12/19 02:02:29;;;;;;;;;;;;;;;-1.16;70.87;97020.03;5026081;28;19988;-58
2021/12/19 02:04:54;;;;;;;;;;;;;;;-1.22;71.69;97021.16;5011885;28;19994;-58
2021/12/19 02:07:19;;;;;;;;;;;;;;;-1.32;72.10;97018.09;5021877;28;22267;-58
2021/12/19 02:09:45;;;;;;;;;;;;;;;-1.59;72.54;97016.63;5010081;28;20550;-59
2021/12/19 02:12:10;;;;;;;;;;;;;;;-1.69;73.55;97017.09;5013091;28;20032;-58
2021/12/19 02:14:35;;;;;;;;;;;;;;;-1.34;71.63;97005.09;5013403;28;20001;-58
2021/12/19 02:17:01;;;;;;;;;;;;;;;-1.20;72.30;97014.06;5019451;28;20067;-57
2021/12/19 02:19:28;;;;;;;;;;;;;;;-1.27;71.38;97005.66;5013857;28;20551;-57
2021/12/19 02:21:53;;;;;;;;;;;;;;;-1.30;71.41;97005.78;5021067;28;20003;-57
2021/12/19 02:24:19;;;;;;;;;;;;;;;-1.29;71.14;97006.66;5016468;28;20543;-57
2021/12/19 02:26:44;;;;;;;;;;;;;;;-1.22;71.33;97002.84;5014930;28;20369;-58
2021/12/19 02:29:09;;;;;;;;;;;;;;;-0.77;70.08;96992.97;5016868;28;20013;-57
2021/12/19 02:31:35;;;;;;;;;;;;;;;-1.28;71.41;97005.72;5019629;28;20390;-57
2021/12/19 02:34:08;;;;;;;;;;;;;;;-0.76;69.51;96993.81;5014852;28;19997;-57
2021/12/19 02:50:00;;;;;;;;;;;;;;;-1.25;72.36;96990.75;4990345;28;19973;-58
2021/12/19 02:52:25;;;;;;;;;;;;;;;-1.23;72.49;96991.53;5004568;28;19998;-55
2021/12/19 02:54:50;;;;;;;;;;;;;;;-1.43;71.54;96978.53;4991442;28;19990;-55
2021/12/19 02:57:16;;;;;;;;;;;;;;;-1.80;73.53;96984.44;5004636;28;20008;-56
2021/12/19 02:59:41;;;;;;;;;;;;;;;-1.31;72.72;96972.75;4993303;28;19994;-58
2021/12/19 03:02:06;;;;;;;;;;;;;;;-1.02;70.48;96983.63;5003487;28;19973;-57
2021/12/19 03:04:32;;;;;;;;;;;;;;;-1.49;71.69;96972.66;4994445;28;19986;-56
2021/12/19 03:06:57;;;;;;;;;;;;;;;-1.60;72.22;96982.72;4988901;28;20061;-57
2021/12/19 03:20:22;;;;;;;;;;;;;;;-1.71;73.35;96964.94;5010342;28;20005;-57
2021/12/19 03:22:47;;;;;;;;;;;;;;;-1.17;72.13;96966.03;5024588;28;19969;-57
2021/12/19 03:25:12;;;;;;;;;;;;;;;-1.05;71.35;96954.16;5010720;28;19986;-58
2021/12/19 03:27:37;;;;;;;;;;;;;;;-1.17;71.89;96958.19;5023750;28;20512;-58
2021/12/19 03:30:03;;;;;;;;;;;;;;;-0.90;70.43;96956.09;5012609;28;20381;-57
2021/12/19 03:32:29;;;;;;;;;;;;;;;-1.20;71.03;96959.19;5021841;28;20474;-57
2021/12/19 03:34:54;;;;;;;;;;;;;;;-1.16;71.06;96959.91;5014210;28;20032;-58
2021/12/19 03:37:19;;;;;;;;;;;;;;;-1.18;70.47;96962.59;5019955;28;19998;-58
2021/12/19 03:39:56;;;;;;;;;;;;;;;-1.46;72.04;96961.22;5016254;28;19994;-58
2021/12/19 03:42:24;;;;;;;;;;;;;;;-1.54;72.14;96961.56;5020078;28;20296;-58
2021/12/19 03:44:50;;;;;;;;;;;;;;;-1.68;72.59;96961.31;5015663;28;20005;-57
2021/12/19 03:47:15;;;;;;;;;;;;;;;-1.54;72.14;96956.34;5009288;28;20402;-58
2021/12/19 03:49:40;;;;;;;;;;;;;;;-0.94;71.14;96946.69;5015885;28;19973;-58
2021/12/19 03:52:05;;;;;;;;;;;;;;;-0.98;71.16;96943.34;5016182;28;20075;-57
2021/12/19 03:54:31;;;;;;;;;;;;;;;-0.99;70.56;96939.03;5019574;28;20039;-58
2021/12/19 03:56:56;;;;;;;;;;;;;;;-0.64;69.54;96934.81;5014636;28;19997;-58
2021/12/19 03:59:21;;;;;;;;;;;;;;;-0.69;69.34;96927.19;5020928;28;19973;-58
2021/12/19 04:01:50;;;;;;;;;;;;;;;-0.92;69.96;96921.31;5013005;28;20338;-58
2021/12/19 04:04:16;;;;;;;;;;;;;;;-0.91;69.23;96917.78;5022912;28;20458;-58
2021/12/19 04:06:41;;;;;;;;;;;;;;;-1.02;70.04;96915.63;5005452;28;19977;-58
2021/12/19 04:09:06;;;;;;;;;;;;;;;-1.02;69.26;96910.41;5007280;28;19994;-57
2021/12/19 04:11:31;;;;;;;;;;;;;;;-1.52;71.58;96904.84;5007526;28;20454;-57
2021/12/19 04:13:57;;;;;;;;;;;;;;;-1.32;71.29;96902.25;4990780;28;20076;-58
2021/12/19 04:16:22;;;;;;;;;;;;;;;-1.61;72.21;96911.38;4988536;28;20393;-59
2021/12/19 04:18:47;;;;;;;;;;;;;;;-1.80;72.62;96902.69;4985298;28;20008;-58
2021/12/19 04:21:12;;;;;;;;;;;;;;;-2.08;74.96;96894.28;5004215;28;19997;-58
2021/12/19 04:23:38;;;;;;;;;;;;;;;-2.11;74.64;96897.88;4992264;28;20043;-55
2021/12/19 04:26:03;;;;;;;;;;;;;;;-2.17;75.32;96900.75;5003106;28;20001;-55
2021/12/19 04:28:28;;;;;;;;;;;;;;;-2.30;76.31;96895.25;4975889;28;19990;-55
2021/12/19 04:30:53;;;;;;;;;;;;;;;-2.09;74.74;96887.38;5001053;28;20027;-57
2021/12/19 04:33:21;;;;;;;;;;;;;;;-2.20;75.82;96873.94;4995398;28;20481;-57
2021/12/19 04:35:48;;;;;;;;;;;;;;;-2.37;76.24;96878.97;4997209;28;21423;-54
2021/12/19 04:38:37;;;;;;;;;;;;;;;-2.36;76.10;96866.78;4985729;28;19974;-55
2021/12/19 04:57:38;;;;;;;;;;;;;;;-1.99;74.92;96866.94;5002783;28;20046;-57
2021/12/19 05:00:08;;;;;;;;;;;;;;;-1.93;75.39;96861.44;5013362;28;20131;-57
2021/12/19 05:15:50;;;;;;;;;;;;;;;-2.72;78.48;96855.25;5013311;28;20019;-58
2021/12/19 05:18:16;;;;;;;;;;;;;;;-2.71;77.88;96869.13;5010123;28;19980;-56
2021/12/19 05:20:51;;;;;;;;;;;;;;;-2.69;78.10;96862.06;5011428;28;20639;-57
2021/12/19 05:23:34;;;;;;;;;;;;;;;-2.57;77.69;96858.13;5026666;28;20454;-57
2021/12/19 05:25:59;;;;;;;;;;;;;;;-2.89;78.94;96854.19;5002088;28;19969;-57
2021/12/19 05:28:24;;;;;;;;;;;;;;;-2.62;78.67;96859.16;5026502;28;20000;-58
2021/12/19 05:30:50;;;;;;;;;;;;;;;-2.48;77.88;96852.50;5013722;28;20424;-57
2021/12/19 05:33:15;;;;;;;;;;;;;;;-2.69;77.70;96864.69;5026945;28;19989;-58
2021/12/19 05:46:53;;;;;;;;;;;;;;;-2.28;76.38;96851.66;5007754;28;19974;-57
2021/12/19 05:49:19;;;;;;;;;;;;;;;-2.79;78.83;96849.44;5026342;28;19989;-58
2021/12/19 05:51:44;;;;;;;;;;;;;;;-2.83;79.43;96845.25;5023224;28;20418;-57
2021/12/19 05:54:10;;;;;;;;;;;;;;;-2.65;77.95;96845.41;5010291;28;19993;-57
2021/12/19 05:56:35;;;;;;;;;;;;;;;-2.74;78.40;96844.03;5023520;28;20335;-57
2021/12/19 05:59:01;;;;;;;;;;;;;;;-2.42;77.13;96848.78;5014424;28;20043;-57
2021/12/19 06:01:26;;;;;;;;;;;;;;;-2.47;77.47;96842.94;5021957;28;20389;-57
2021/12/19 06:03:51;;;;;;;;;;;;;;;-2.11;76.11;96842.22;4992867;28;20113;-57
2021/12/19 06:06:16;;;;;;;;;;;;;;;-2.00;75.94;96845.19;5003210;28;19993;-57
2021/12/19 06:08:41;;;;;;;;;;;;;;;-1.94;75.18;96848.47;5000509;28;19994;-57
2021/12/19 06:11:07;;;;;;;;;;;;;;;-1.66;73.81;96840.19;5016401;28;19980;-57
2021/12/19 06:13:32;;;;;;;;;;;;;;;-1.73;74.23;96837.03;5012358;28;20334;-58
2021/12/19 06:15:57;;;;;;;;;;;;;;;-1.86;75.42;96825.47;5025479;28;20127;-57
2021/12/19 06:18:23;;;;;;;;;;;;;;;-1.79;73.66;96832.09;5007329;28;19984;-58
2021/12/19 06:20:48;;;;;;;;;;;;;;;-2.20;75.07;96824.38;5025822;28;20220;-57
2021/12/19 06:23:14;;;;;;;;;;;;;;;-2.22;77.32;96828.81;5011768;28;20409;-58
2021/12/19 06:25:45;;;;;;;;;;;;;;;-1.98;74.85;96822.50;5015498;28;19965;-57
2021/12/19 06:28:11;;;;;;;;;;;;;;;-1.48;73.43;96814.16;5022144;28;19993;-58
2021/12/19 06:30:36;;;;;;;;;;;;;;;-1.14;71.44;96807.31;5012348;28;20065;-57
2021/12/19 06:33:02;;;;;;;;;;;;;;;-1.64;73.20;96809.66;5025689;28;20080;-57
2021/12/19 06:35:29;;;;;;;;;;;;;;;-1.59;73.31;96810.25;5010230;28;20033;-57
2021/12/19 06:37:54;;;;;;;;;;;;;;;-1.65;73.45;96805.34;5005680;28;20044;-58
2021/12/19 06:40:20;;;;;;;;;;;;;;;-2.17;74.48;96804.19;5008200;28;19997;-58
2021/12/19 06:42:46;;;;;;;;;;;;;;;-2.14;74.96;96808.47;5026093;28;19973;-58
2021/12/19 06:45:12;;;;;;;;;;;;;;;-2.20;75.04;96806.09;5010430;28;19997;-58
2021/12/19 06:47:37;;;;;;;;;;;;;;;-1.75;73.35;96811.91;5010692;28;19989;-58
2021/12/19 06:50:03;;;;;;;;;;;;;;;-1.95;74.04;96802.38;5007652;28;20064;-58
2021/12/19 06:52:28;;;;;;;;;;;;;;;-1.44;71.90;96807.84;5015844;28;19998;-59
2021/12/19 06:54:53;;;;;;;;;;;;;;;-1.35;71.84;96794.34;5011696;28;20028;-58
2021/12/19 06:57:18;;;;;;;;;;;;;;;-1.91;73.78;96796.09;5025274;28;20040;-58
2021/12/19 06:59:44;;;;;;;;;;;;;;;-1.87;73.74;96795.91;5011797;28;20385;-57
2021/12/19 07:02:13;;;;;;;;;;;;;;;-2.25;75.57;96816.75;5009061;28;20013;-58
2021/12/19 07:04:39;;;;;;;;;;;;;;;-2.40;75.77;96808.69;5022985;28;19997;-58
2021/12/19 07:07:04;;;;;;;;;;;;;;;-2.52;75.14;96823.09;5011392;28;19992;-57
2021/12/19 07:09:30;;;;;;;;;;;;;;;-2.55;75.52;96820.63;5010235;28;19994;-57
2021/12/19 07:11:55;;;;;;;;;;;;;;;-2.50;75.94;96810.88;5006530;28;19993;-58
2021/12/19 07:14:20;;;;;;;;;;;;;;;-2.13;74.42;96808.34;5009967;28;20539;-58
2021/12/19 07:16:45;;;;;;;;;;;;;;;-1.98;74.07;96806.84;5019223;28;20020;-58
2021/12/19 07:19:11;;;;;;;;;;;;;;;-1.96;74.01;96804.16;5010573;28;19973;-58
2021/12/19 07:21:36;;;;;;;;;;;;;;;-2.24;75.32;96795.81;5022018;28;19969;-58
2021/12/19 07:24:01;;;;;;;;;;;;;;;-2.24;76.04;96793.19;5013213;28;20077;-58
2021/12/19 07:26:26;;;;;;;;;;;;;;;-1.90;73.96;96793.41;5008872;28;20619;-58
2021/12/19 07:28:52;;;;;;;;;;;;;;;-2.03;74.06;96790.50;5014543;28;20059;-58
2021/12/19 07:31:17;;;;;;;;;;;;;;;-2.16;74.66;96785.03;5002767;28;19977;-57
2021/12/19 07:33:44;;;;;;;;;;;;;;;-2.32;75.57;96782.25;5006216;28;19984;-58
2021/12/19 07:36:09;;;;;;;;;;;;;;;-2.29;75.66;96783.88;5004256;28;20068;-58
2021/12/19 07:38:47;;;;;;;;;;;;;;;-2.57;76.64;96779.88;5019961;28;19974;-58
2021/12/19 07:41:12;;;;;;;;;;;;;;;-2.18;76.32;96780.78;5021010;28;20366;-59
2021/12/19 07:43:37;;;;;;;;;;;;;;;-2.10;74.98;96776.09;5024365;28;19986;-58
2021/12/19 07:46:03;;;;;;;;;;;;;;;-2.40;76.16;96769.56;5004258;28;20527;-58
2021/12/19 07:48:28;;;;;;;;;;;;;;;-2.15;75.75;96767.59;5011658;28;20353;-58
2021/12/19 07:50:54;;;;;;;;;;;;;;;-2.12;75.45;96770.94;5020732;28;19973;-58
2021/12/19 07:53:19;;;;;;;;;;;;;;;-2.40;75.70;96777.41;5005617;28;20213;-58
2021/12/19 07:55:44;;;;;;;;;;;;;;;-2.42;76.07;96767.91;5019478;28;19993;-58
2021/12/19 07:58:10;;;;;;;;;;;;;;;-2.05;74.16;96773.25;5024558;28;19972;-57
2021/12/19 08:00:35;;;;;;;;;;;;;;;-2.09;74.49;96761.25;5024186;28;20171;-58
2021/12/19 08:03:00;;;;;;;;;;;;;;;-2.32;75.15;96774.44;5019603;28;20077;-58
2021/12/19 08:05:26;;;;;;;;;;;;;;;-2.10;74.30;96770.88;5019056;28;20072;-58
2021/12/19 08:07:56;;;;;;;;;;;;;;;-1.87;73.68;96761.09;5014086;28;20025;-58
2021/12/19 08:12:47;;;;;;;;;;;;;;;-1.70;72.20;96754.25;5024233;28;20466;-58
2021/12/19 08:15:12;;;;;;;;;;;;;;;-1.69;73.35;96755.94;5024090;28;19994;-58
2021/12/19 08:17:38;;;;;;;;;;;;;;;-1.47;71.83;96764.44;5021373;28;19993;-58
2021/12/19 08:20:04;;;;;;;;;;;;;;;-1.54;72.01;96757.81;5027994;28;20510;-58
2021/12/19 08:22:30;;;;;;;;;;;;;;;-1.39;71.68;96766.66;5028356;28;19975;-58
2021/12/19 08:24:57;;;;;;;;;;;;;;;-1.54;72.23;96767.41;5026313;28;19996;-59
2021/12/19 08:27:22;;;;;;;;;;;;;;;-1.91;73.41;96770.00;5028083;28;20072;-58
2021/12/19 08:29:48;;;;;;;;;;;;;;;-2.00;74.62;96766.06;5027939;28;20069;-59
2021/12/19 08:32:13;;;;;;;;;;;;;;;-1.90;74.45;96761.25;5028091;28;20086;-58
2021/12/19 08:34:38;;;;;;;;;;;;;;;-1.64;73.40;96749.56;5015179;28;19993;-58
2021/12/19 08:37:04;;;;;;;;;;;;;;;-1.26;71.38;96739.94;5027785;28;20033;-58
2021/12/19 08:39:31;;;;;;;;;;;;;;;-1.28;71.46;96740.03;5023777;28;19978;-58
2021/12/19 08:41:56;;;;;;;;;;;;;;;-0.93;70.46;96744.44;5028257;28;19978;-58
2021/12/19 08:44:21;;;;;;;;;;;;;;;-1.84;73.76;96740.06;5024334;28;20465;-58
2021/12/19 08:46:47;;;;;;;;;;;;;;;-2.20;75.46;96738.25;4999588;28;19980;-58
2021/12/19 08:49:12;;;;;;;;;;;;;;;-2.59;76.46;96740.81;5020297;28;20036;-58
2021/12/19 08:51:39;;;;;;;;;;;;;;;-2.60;76.67;96736.53;5022435;28;20381;-58
2021/12/19 08:54:04;;;;;;;;;;;;;;;-2.71;77.68;96739.63;5009751;28;20357;-57
2021/12/19 08:56:30;;;;;;;;;;;;;;;-2.91;79.04;96730.06;5027430;28;19993;-55
2021/12/19 08:58:55;;;;;;;;;;;;;;;-2.88;79.42;96719.50;5027798;28;19969;-58
2021/12/19 09:01:20;;;;;;;;;;;;;;;-2.93;78.67;96718.84;5027369;28;20446;-57
2021/12/19 09:03:45;;;;;;;;;;;;;;;-2.88;79.11;96716.91;5027362;28;19996;-54
2021/12/19 09:06:11;;;;;;;;;;;;;;;-2.95;79.46;96718.06;5024855;28;20368;-55
2021/12/19 09:08:36;;;;;;;;;;;;;;;-2.85;79.73;96721.13;5015029;28;19981;-55
2021/12/19 09:11:01;;;;;;;;;;;;;;;-2.82;79.66;96726.22;5025006;28;19980;-55
2021/12/19 09:13:26;;;;;;;;;;;;;;;-3.06;80.39;96735.00;5026915;28;20047;-55
2021/12/19 09:15:52;;;;;;;;;;;;;;;-2.93;79.68;96721.44;5026916;28;20138;-55
2021/12/19 09:18:17;;;;;;;;;;;;;;;-2.62;78.52;96727.91;5019686;28;20069;-57
2021/12/19 09:20:43;;;;;;;;;;;;;;;-2.30;77.44;96720.44;5027003;28;20469;-57
2021/12/19 09:23:08;;;;;;;;;;;;;;;-2.39;76.63;96728.66;5025930;28;19979;-57
2021/12/19 09:25:34;;;;;;;;;;;;;;;-2.67;78.61;96727.28;5026964;28;19995;-57
2021/12/19 09:27:59;;;;;;;;;;;;;;;-2.72;78.93;96732.69;5026650;28;19993;-57
2021/12/19 09:30:25;;;;;;;;;;;;;;;-2.83;78.70;96727.09;5001084;28;20008;-57
2021/12/19 09:32:50;;;;;;;;;;;;;;;-2.97;79.23;96723.34;5027036;28;20623;-57
2021/12/19 09:35:16;;;;;;;;;;;;;;;-2.96;79.68;96735.47;5024856;28;20170;-57
2021/12/19 09:37:41;;;;;;;;;;;;;;;-3.11;79.80;96728.28;5026573;28;20055;-57
2021/12/19 09:40:07;;;;;;;;;;;;;;;-2.95;79.65;96728.50;5020603;28;20001;-58
2021/12/19 09:42:35;;;;;;;;;;;;;;;-2.78;78.09;96728.59;5026896;28;19972;-57
2021/12/19 09:45:01;;;;;;;;;;;;;;;-3.19;79.34;96728.63;5012168;28;20044;-57
2021/12/19 09:47:26;;;;;;;;;;;;;;;-3.05;79.34;96734.09;5013153;28;19973;-58
2021/12/19 09:49:52;;;;;;;;;;;;;;;-2.88;78.38;96725.53;5011515;28;20479;-57
2021/12/19 09:52:17;;;;;;;;;;;;;;;-2.34;77.03;96724.09;5006662;28;20035;-57
2021/12/19 09:54:42;;;;;;;;;;;;;;;-2.37;77.35;96721.63;5005190;28;19992;-58
2021/12/19 09:57:08;;;;;;;;;;;;;;;-2.24;76.09;96722.75;5006459;28;19997;-58
2021/12/19 09:59:33;;;;;;;;;;;;;;;-2.77;78.19;96713.81;5006082;28;20466;-58
2021/12/19 10:01:58;;;;;;;;;;;;;;;-2.77;78.72;96725.09;5014995;28;19969;-58
2021/12/19 10:04:33;;;;;;;;;;;;;;;-2.85;78.29;96719.34;5006946;28;20040;-58
2021/12/19 10:07:11;;;;;;;;;;;;;;;-2.85;79.15;96713.31;5006410;28;19969;-57
2021/12/19 10:09:37;;;;;;;;;;;;;;;-2.76;79.01;96711.13;5006171;28;20447;-57
2021/12/19 10:12:24;;;;;;;;;;;;;;;-3.00;78.37;96718.25;5005897;28;20001;-57
2021/12/19 10:14:51;;;;;;;;;;;;;;;-3.00;78.00;96710.44;4997760;28;20489;-57
2021/12/19 10:17:17;;;;;;;;;;;;;;;-3.14;78.24;96695.41;5006303;28;19993;-57
2021/12/19 10:19:46;;;;;;;;;;;;;;;-3.11;78.40;96697.88;5005988;28;20369;-58
2021/12/19 10:22:26;;;;;;;;;;;;;;;-3.21;78.97;96693.97;5005974;28;20063;-57
2021/12/19 10:24:52;;;;;;;;;;;;;;;-2.99;77.74;96682.63;5005900;28;20653;-58
2021/12/19 10:27:33;;;;;;;;;;;;;;;-2.98;78.13;96682.56;5001275;28;20353;-57
2021/12/19 10:29:58;;;;;;;;;;;;;;;-3.19;79.34;96679.13;5013542;28;19973;-57
2021/12/19 10:32:23;;;;;;;;;;;;;;;-2.97;78.80;96675.56;5025492;28;19993;-57
2021/12/19 10:34:49;;;;;;;;;;;;;;;-2.81;77.87;96670.53;5008745;28;20052;-57
2021/12/19 10:37:32;;;;;;;;;;;;;;;-2.62;77.77;96668.81;5019652;28;20436;-58
2021/12/19 10:40:01;;;;;;;;;;;;;;;-2.66;76.35;96658.56;5011183;28;20519;-58
2021/12/19 10:42:26;;;;;;;;;;;;;;;-2.46;76.34;96654.22;5013504;28;20304;-57
2021/12/19 10:47:35;;;;;;;;;;;;;;;-2.61;75.71;96656.63;5006552;28;20406;-57
2021/12/19 10:50:00;;;;;;;;;;;;;;;-3.08;77.19;96657.81;5015243;28;20073;-57
2021/12/19 10:52:36;;;;;;;;;;;;;;;-3.01;77.77;96654.88;5021338;28;20434;-57
2021/12/19 10:55:03;;;;;;;;;;;;;;;-2.85;76.74;96648.97;5025479;28;20450;-57
2021/12/19 10:57:38;;;;;;;;;;;;;;;-3.43;79.41;96645.41;5015615;28;20153;-57
2021/12/19 11:00:05;;;;;;;;;;;;;;;-3.09;79.32;96646.53;5008036;28;20084;-57
2021/12/19 11:02:37;;;;;;;;;;;;;;;-3.30;79.96;96651.78;5014421;28;20449;-57
2021/12/19 11:05:03;;;;;;;;;;;;;;;-2.96;78.21;96640.81;5021644;28;19982;-57
2021/12/19 11:07:28;;;;;;;;;;;;;;;-3.04;78.91;96644.59;5005338;28;19999;-57
2021/12/19 11:09:54;;;;;;;;;;;;;;;-3.09;79.07;96643.09;5007737;28;20423;-57
2021/12/19 11:12:19;;;;;;;;;;;;;;;-2.87;78.69;96632.56;5006719;28;19990;-57
2021/12/19 11:14:44;;;;;;;;;;;;;;;-2.34;77.30;96624.97;5016511;28;19993;-57
2021/12/19 11:17:14;;;;;;;;;;;;;;;-2.61;77.34;96625.34;5004492;28;20355;-58
2021/12/19 11:19:40;;;;;;;;;;;;;;;-2.79;77.31;96619.16;5010733;28;20334;-57
2021/12/19 11:22:05;;;;;;;;;;;;;;;-3.22;79.40;96625.41;5023289;28;20020;-57
2021/12/19 11:24:30;;;;;;;;;;;;;;;-3.29;80.03;96611.78;5010768;28;20000;-57
2021/12/19 11:26:58;;;;;;;;;;;;;;;-2.97;79.02;96607.81;5019440;28;19970;-57
2021/12/19 11:29:23;;;;;;;;;;;;;;;-3.26;79.91;96613.41;5016595;28;20465;-58
2021/12/19 11:31:51;;;;;;;;;;;;;;;-3.25;80.06;96589.06;5020836;28;19990;-57
2021/12/19 11:34:21;;;;;;;;;;;;;;;-3.35;81.38;96592.97;5003898;28;20080;-57
2021/12/19 11:36:48;;;;;;;;;;;;;;;-3.19;80.81;96587.94;5002140;28;20002;-57
2021/12/19 11:39:14;;;;;;;;;;;;;;;-3.19;80.02;96582.75;5015795;28;20004;-57
2021/12/19 11:41:40;;;;;;;;;;;;;;;-3.32;80.26;96588.50;5005882;28;20001;-57
2021/12/19 11:44:08;;;;;;;;;;;;;;;-3.16;79.29;96580.81;5002789;28;19994;-57
2021/12/19 11:46:52;;;;;;;;;;;;;;;-2.97;79.46;96579.16;4990302;28;20262;-57
2021/12/19 11:49:24;;;;;;;;;;;;;;;-3.16;79.99;96572.19;5003950;28;20565;-57
2021/12/19 11:51:50;;;;;;;;;;;;;;;-3.19;80.41;96577.53;4990549;28;20432;-57
2021/12/19 11:54:16;;;;;;;;;;;;;;;-2.91;79.63;96571.06;5003494;28;20084;-58
2021/12/19 11:57:01;;;;;;;;;;;;;;;-2.92;79.88;96572.81;4990925;28;20389;-57
2021/12/19 11:59:27;;;;;;;;;;;;;;;-3.27;80.64;96568.28;4974757;28;20379;-57
2021/12/19 12:01:52;;;;;;;;;;;;;;;-3.29;80.75;96554.47;4997095;28;20053;-57
2021/12/19 12:04:19;;;;;;;;;;;;;;;-3.37;81.45;96547.94;4999410;28;20367;-57
2021/12/19 12:06:54;;;;;;;;;;;;;;;-3.19;81.32;96544.50;4989576;28;20634;-57
2021/12/19 12:09:27;;;;;;;;;;;;;;;-2.84;79.68;96540.34;4989570;28;19990;-57
2021/12/19 12:11:58;;;;;;;;;;;;;;;-2.76;78.38;96540.81;4987444;28;19996;-57
2021/12/19 12:14:26;;;;;;;;;;;;;;;-3.03;79.15;96536.84;5001080;28;19996;-57
2021/12/19 12:16:53;;;;;;;;;;;;;;;-3.03;78.81;96529.00;4997958;28;20057;-57
2021/12/19 12:19:18;;;;;;;;;;;;;;;-2.67;77.95;96523.91;4993076;28;20009;-57
2021/12/19 12:21:48;;;;;;;;;;;;;;;-3.00;78.53;96528.03;5002336;28;20525;-57
2021/12/19 12:24:13;;;;;;;;;;;;;;;-3.33;79.63;96519.06;4991406;28;20515;-57
2021/12/19 12:26:46;;;;;;;;;;;;;;;-3.12;79.54;96513.81;5004357;28;20081;-57
2021/12/19 12:29:11;;;;;;;;;;;;;;;-2.89;78.73;96514.47;4986344;28;20319;-58
2021/12/19 12:31:36;;;;;;;;;;;;;;;-3.43;79.89;96513.41;4990545;28;19990;-57
2021/12/19 12:34:02;;;;;;;;;;;;;;;-3.38;80.19;96517.56;4983125;28;19994;-57
2021/12/19 12:36:27;;;;;;;;;;;;;;;-3.36;79.97;96508.78;4982992;28;20021;-57
2021/12/19 12:38:52;;;;;;;;;;;;;;;-3.46;79.87;96499.69;4983683;28;20050;-57
2021/12/19 12:44:05;;;;;;;;;;;;;;;-3.59;81.54;96495.03;4989487;28;19997;-57
2021/12/19 12:46:31;;;;;;;;;;;;;;;-3.47;81.17;96492.81;5000801;28;19966;-57
2021/12/19 12:49:00;;;;;;;;;;;;;;;-3.23;79.72;96493.44;5005049;28;20043;-57
2021/12/19 12:51:36;;;;;;;;;;;;;;;-3.35;79.98;96494.88;4993323;28;20013;-57
2021/12/19 12:54:09;;;;;;;;;;;;;;;-3.36;80.61;96485.34;5011349;28;19972;-57
2021/12/19 12:56:38;;;;;;;;;;;;;;;-3.35;80.08;96484.44;5003592;28;19996;-57
2021/12/19 12:59:03;;;;;;;;;;;;;;;-3.23;80.67;96482.19;5006134;28;19973;-57
2021/12/19 13:01:34;;;;;;;;;;;;;;;-3.47;80.91;96474.59;5004177;28;19993;-57
2021/12/19 13:04:00;;;;;;;;;;;;;;;-3.36;80.85;96474.91;5017777;28;20381;-57
2021/12/19 13:06:38;;;;;;;;;;;;;;;-3.16;80.15;96473.19;5006451;28;19978;-57
2021/12/19 13:09:07;;;;;;;;;;;;;;;-3.35;81.09;96476.63;5008084;28;19993;-56
2021/12/19 13:11:32;;;;;;;;;;;;;;;-3.76;81.80;96466.28;5011544;28;19977;-57
2021/12/19 13:14:08;;;;;;;;;;;;;;;-3.53;81.41;96463.50;5007549;28;20072;-56
2021/12/19 13:16:40;;;;;;;;;;;;;;;-3.50;81.04;96462.53;4993279;28;19997;-57
2021/12/19 13:19:05;;;;;;;;;;;;;;;-3.71;82.16;96464.31;5017316;28;19973;-58
2021/12/19 13:21:30;;;;;;;;;;;;;;;-3.83;82.50;96460.53;5021224;28;20000;-57
2021/12/19 13:24:01;;;;;;;;;;;;;;;-3.83;82.57;96468.34;5010703;28;20029;-56
2021/12/19 13:26:32;;;;;;;;;;;;;;;-3.55;81.18;96470.56;5007811;28;20573;-56
2021/12/19 13:29:15;;;;;;;;;;;;;;;-3.66;81.94;96454.56;5018872;28;20063;-57
2021/12/19 13:31:40;;;;;;;;;;;;;;;-3.57;81.41;96448.94;5010784;28;20470;-57
2021/12/19 13:34:11;;;;;;;;;;;;;;;-3.67;81.79;96456.31;5020223;28;20000;-57
2021/12/19 13:36:36;;;;;;;;;;;;;;;-3.59;82.09;96445.59;5012675;28;20455;-57
2021/12/19 13:39:01;;;;;;;;;;;;;;;-3.61;81.87;96438.72;5005265;28;19974;-57
2021/12/19 13:41:26;;;;;;;;;;;;;;;-3.74;81.85;96441.88;5013073;28;20338;-57
2021/12/19 13:43:52;;;;;;;;;;;;;;;-3.55;81.50;96439.31;5009726;28;20482;-55
2021/12/19 13:46:18;;;;;;;;;;;;;;;-3.48;81.00;96436.41;5007412;28;20528;-57
2021/12/19 13:48:51;;;;;;;;;;;;;;;-3.50;81.31;96433.88;5014244;28;19993;-57
2021/12/19 13:51:17;;;;;;;;;;;;;;;-3.56;81.78;96434.19;4996778;28;20435;-57
2021/12/19 13:53:46;;;;;;;;;;;;;;;-3.29;80.84;96428.63;4998253;28;20441;-57
2021/12/19 13:56:12;;;;;;;;;;;;;;;-3.50;81.63;96441.69;4989440;28;20610;-56
2021/12/19 13:58:44;;;;;;;;;;;;;;;-3.67;82.75;96442.47;4992354;28;19966;-57
2021/12/19 14:01:11;;;;;;;;;;;;;;;-3.66;82.58;96439.78;4992016;28;20017;-57
2021/12/19 14:03:59;;;;;;;;;;;;;;;-3.30;81.39;96429.50;5001139;28;20049;-57